createdAt,value
2023-05-19T00:00:32.150Z,100.00
2023-05-19T00:04:37.906Z,100.00
2023-05-19T00:08:41.183Z,100.00
2023-05-19T00:12:44.798Z,100.00
2023-05-19T00:16:49.032Z,100.00
2023-05-19T00:20:53.536Z,100.00
2023-05-19T00:24:56.608Z,100.00
2023-05-19T00:28:59.664Z,100.00
2023-05-19T00:33:03.245Z,100.00
2023-05-19T00:37:07.984Z,100.00
2023-05-19T00:41:12.064Z,100.00
2023-05-19T00:45:15.471Z,100.00
2023-05-19T00:49:18.912Z,100.00
2023-05-19T00:53:24.593Z,100.00
2023-05-19T00:57:27.777Z,100.00
2023-05-19T01:01:32.535Z,100.00
2023-05-19T01:05:37.167Z,100.00
2023-05-19T01:09:41.952Z,100.00
2023-05-19T01:13:45.562Z,100.00
2023-05-19T01:17:54.707Z,100.00
2023-05-19T01:22:08.069Z,100.00
2023-05-19T01:26:19.577Z,100.00
2023-05-19T01:30:27.991Z,100.00
2023-05-19T01:34:32.783Z,100.00
2023-05-19T01:38:36.274Z,100.00
2023-05-19T01:42:40.661Z,100.00
2023-05-19T01:46:45.629Z,100.00
2023-05-19T01:50:48.968Z,100.00
2023-05-19T01:54:52.511Z,100.00
2023-05-19T01:59:01.683Z,100.00
2023-05-19T02:03:10.810Z,100.00
2023-05-19T02:07:16.637Z,100.00
2023-05-19T02:11:24.300Z,100.00
2023-05-19T02:15:31.506Z,100.00
2023-05-19T02:19:39.985Z,100.00
2023-05-19T02:23:43.406Z,100.00
2023-05-19T02:27:46.593Z,100.00
2023-05-19T02:31:50.006Z,100.00
2023-05-19T02:35:54.559Z,100.00
2023-05-19T02:39:57.816Z,100.00
2023-05-19T02:44:01.178Z,100.00
2023-05-19T02:48:04.635Z,100.00
2023-05-19T02:52:09.762Z,100.00
2023-05-19T02:56:12.933Z,100.00
2023-05-19T03:00:16.713Z,100.00
2023-05-19T03:04:20.914Z,100.00
2023-05-19T03:08:25.468Z,100.00
2023-05-19T03:12:28.801Z,100.00
2023-05-19T03:16:32.653Z,100.00
2023-05-19T03:20:37.558Z,100.00
2023-05-19T03:24:43.195Z,100.00
2023-05-19T03:28:47.081Z,100.00
2023-05-19T03:32:52.307Z,100.00
2023-05-19T03:36:56.049Z,100.00
2023-05-19T03:41:00.944Z,100.00
2023-05-19T03:45:04.207Z,100.00
2023-05-19T03:49:08.162Z,100.00
2023-05-19T03:53:31.668Z,100.00
2023-05-19T03:57:37.912Z,100.00
2023-05-19T04:01:41.146Z,100.00
2023-05-19T04:05:44.618Z,100.00
2023-05-19T04:09:48.864Z,100.00
2023-05-19T04:13:53.564Z,100.00
2023-05-19T04:17:57.338Z,100.00
2023-05-19T04:22:00.847Z,100.00
2023-05-19T04:26:03.886Z,100.00
2023-05-19T04:30:09.694Z,100.00
2023-05-19T04:34:13.495Z,100.00
2023-05-19T04:38:20.160Z,100.00
2023-05-19T04:42:26.273Z,100.00
2023-05-19T04:46:32.963Z,100.00
2023-05-19T04:50:38.678Z,100.00
2023-05-19T04:54:41.965Z,100.00
2023-05-19T04:58:48.419Z,100.00
2023-05-19T05:02:53.393Z,100.00
2023-05-19T05:06:58.386Z,100.00
2023-05-19T05:11:02.660Z,100.00
2023-05-19T05:15:07.135Z,100.00
2023-05-19T05:19:12.723Z,100.00
2023-05-19T05:23:16.946Z,100.00
2023-05-19T05:27:22.881Z,100.00
2023-05-19T05:31:26.931Z,100.00
2023-05-19T05:35:31.835Z,100.00
2023-05-19T05:39:35.232Z,100.00
2023-05-19T05:43:38.543Z,100.00
2023-05-19T05:47:42.614Z,100.00
2023-05-19T05:52:01.546Z,100.00
2023-05-19T05:56:12.247Z,100.00
2023-05-19T06:00:22.515Z,100.00
2023-05-19T06:04:29.359Z,100.00
2023-05-19T06:08:33.883Z,100.00
2023-05-19T06:12:40.183Z,100.00
2023-05-19T06:16:43.892Z,100.00
2023-05-19T06:20:47.329Z,100.00
2023-05-19T06:24:51.836Z,100.00
2023-05-19T06:28:56.264Z,100.00
2023-05-19T06:32:59.912Z,100.00
2023-05-19T06:37:05.066Z,100.00
2023-05-19T06:41:10.803Z,100.00
2023-05-19T06:45:14.136Z,100.00
2023-05-19T06:49:17.363Z,100.00
2023-05-19T06:53:22.180Z,100.00
2023-05-19T06:57:29.602Z,100.00
2023-05-19T07:01:34.386Z,100.00
2023-05-19T07:05:38.391Z,100.00
2023-05-19T07:09:41.517Z,100.00
2023-05-19T07:13:46.108Z,100.00
2023-05-19T07:17:54.373Z,100.00
2023-05-19T07:21:59.450Z,100.00
2023-05-19T07:26:03.014Z,100.00
2023-05-19T07:30:08.897Z,100.00
2023-05-19T07:34:12.099Z,100.00
2023-05-19T07:38:15.162Z,100.00
2023-05-19T07:42:18.670Z,100.00
2023-05-19T07:46:23.342Z,100.00
2023-05-19T07:50:26.734Z,100.00
2023-05-19T07:54:29.928Z,100.00
2023-05-19T07:58:32.936Z,100.00
2023-05-19T08:02:37.777Z,100.00
2023-05-19T08:06:42.928Z,100.00
2023-05-19T08:10:46.328Z,100.00
2023-05-19T08:14:49.617Z,100.00
2023-05-19T08:18:55.194Z,100.00
2023-05-19T08:22:58.415Z,100.00
2023-05-19T08:27:01.930Z,100.00
2023-05-19T08:31:05.985Z,100.00
2023-05-19T08:35:11.254Z,100.00
2023-05-19T08:39:16.395Z,100.00
2023-05-19T08:43:19.802Z,100.00
2023-05-19T08:47:23.586Z,95.42
2023-05-19T08:51:33.501Z,95.18
2023-05-19T08:55:38.259Z,86.56
2023-05-19T08:59:42.402Z,83.65
2023-05-19T09:03:46.356Z,81.78
2023-05-19T09:07:51.084Z,76.67
2023-05-19T09:11:54.172Z,76.58
2023-05-19T09:15:58.523Z,68.89
2023-05-19T09:20:03.102Z,62.39
2023-05-19T09:24:08.460Z,70.63
2023-05-19T09:28:11.978Z,77.16
2023-05-19T09:32:25.378Z,70.22
2023-05-19T09:36:30.328Z,66.14
2023-05-19T09:40:35.238Z,67.94
2023-05-19T09:44:38.785Z,67.49
2023-05-19T09:48:43.014Z,69.18
2023-05-19T09:52:46.480Z,63.22
2023-05-19T09:56:58.834Z,65.95
2023-05-19T10:01:02.624Z,64.04
2023-05-19T10:05:06.731Z,66.08
2023-05-19T10:09:09.993Z,63.75
2023-05-19T10:13:14.979Z,62.82
2023-05-19T10:17:18.361Z,62.07
2023-05-19T10:21:21.678Z,65.01
2023-05-19T10:25:25.197Z,64.96
2023-05-19T10:29:32.428Z,62.00
2023-05-19T10:33:39.978Z,56.96
2023-05-19T10:37:46.450Z,63.59
2023-05-19T10:41:55.060Z,57.98
2023-05-19T10:45:59.951Z,61.57
2023-05-19T10:50:03.295Z,65.90
2023-05-19T10:54:12.054Z,57.31
2023-05-19T10:58:16.139Z,58.74
2023-05-19T11:02:37.840Z,54.04
2023-05-19T11:06:42.573Z,59.79
2023-05-19T11:10:47.278Z,54.80
2023-05-19T11:14:53.630Z,53.86
2023-05-19T11:18:57.311Z,49.43
2023-05-19T11:23:08.796Z,51.17
2023-05-19T11:27:19.158Z,53.18
2023-05-19T11:31:25.488Z,55.01
2023-05-19T11:35:30.121Z,53.86
2023-05-19T11:39:34.777Z,51.55
2023-05-19T11:43:37.801Z,55.69
2023-05-19T11:47:57.267Z,55.21
2023-05-19T11:52:04.729Z,54.64
2023-05-19T11:56:09.839Z,52.25
2023-05-19T12:00:14.837Z,55.68
2023-05-19T12:04:18.183Z,54.38
2023-05-19T12:08:21.759Z,52.77
2023-05-19T12:12:26.325Z,49.92
2023-05-19T12:16:35.885Z,56.49
2023-05-19T12:20:39.416Z,49.39
2023-05-19T12:24:43.981Z,53.24
2023-05-19T12:28:48.576Z,54.19
2023-05-19T12:32:53.181Z,51.71
2023-05-19T12:36:56.540Z,49.67
2023-05-19T12:41:00.700Z,48.47
2023-05-19T12:45:05.696Z,48.74
2023-05-19T12:49:09.592Z,47.74
2023-05-19T12:53:14.034Z,49.44
2023-05-19T12:57:17.908Z,48.58
2023-05-19T13:01:24.448Z,48.48
2023-05-19T13:05:28.270Z,47.52
2023-05-19T13:09:35.574Z,44.12
2023-05-19T13:13:39.251Z,46.63
2023-05-19T13:18:02.807Z,45.74
2023-05-19T13:22:06.393Z,46.02
2023-05-19T13:26:11.740Z,46.24
2023-05-19T13:30:15.869Z,47.34
2023-05-19T13:34:20.569Z,46.51
2023-05-19T13:38:23.617Z,45.07
2023-05-19T13:42:26.854Z,44.60
2023-05-19T13:46:43.913Z,41.68
2023-05-19T13:50:49.958Z,42.58
2023-05-19T13:54:54.702Z,42.16
2023-05-19T13:58:57.992Z,42.64
2023-05-19T14:03:02.118Z,42.19
2023-05-19T14:07:07.877Z,43.38
2023-05-19T14:11:11.354Z,43.53
2023-05-19T14:15:15.355Z,42.80
2023-05-19T14:19:18.904Z,42.20
2023-05-19T14:23:23.630Z,41.38
2023-05-19T14:27:26.786Z,42.23
2023-05-19T14:31:30.167Z,42.45
2023-05-19T14:35:33.968Z,42.43
2023-05-19T14:39:38.508Z,44.06
2023-05-19T14:43:43.207Z,42.78
2023-05-19T14:47:47.704Z,42.38
2023-05-19T14:51:51.462Z,40.49
2023-05-19T14:55:56.181Z,40.55
2023-05-19T14:59:59.445Z,40.48
2023-05-19T15:04:02.670Z,43.24
2023-05-19T15:08:06.591Z,42.72
2023-05-19T15:12:12.489Z,42.52
2023-05-19T15:16:18.121Z,45.52
2023-05-19T15:20:21.608Z,44.29
2023-05-19T15:24:25.556Z,42.43
2023-05-19T15:28:30.080Z,40.58
2023-05-19T15:32:34.838Z,41.52
2023-05-19T15:36:38.374Z,40.58
2023-05-19T15:40:43.169Z,42.00
2023-05-19T15:44:47.931Z,42.66
2023-05-19T15:48:51.166Z,44.49
2023-05-19T15:52:55.261Z,44.08
2023-05-19T15:56:59.057Z,41.94
2023-05-19T16:01:04.500Z,44.16
2023-05-19T16:05:08.470Z,42.85
2023-05-19T16:09:13.393Z,42.31
2023-05-19T16:13:16.759Z,43.25
2023-05-19T16:17:21.225Z,42.33
2023-05-19T16:21:24.453Z,41.37
2023-05-19T16:25:28.001Z,42.02
2023-05-19T16:29:31.164Z,42.99
2023-05-19T16:33:35.878Z,41.47
2023-05-19T16:37:39.608Z,41.93
2023-05-19T16:41:42.828Z,42.23
2023-05-19T16:45:46.626Z,41.95
2023-05-19T16:49:51.675Z,41.32
2023-05-19T16:53:55.010Z,42.59
2023-05-19T16:57:58.237Z,41.91
2023-05-19T17:02:01.572Z,42.07
2023-05-19T17:06:06.336Z,43.28
2023-05-19T17:10:10.554Z,44.73
2023-05-19T17:14:13.992Z,44.00
2023-05-19T17:18:17.126Z,42.77
2023-05-19T17:22:22.645Z,43.36
2023-05-19T17:26:26.816Z,44.18
2023-05-19T17:30:30.704Z,45.27
2023-05-19T17:34:34.253Z,46.88
2023-05-19T17:38:40.534Z,47.32
2023-05-19T17:42:44.044Z,48.69
2023-05-19T17:46:47.924Z,48.14
2023-05-19T17:50:51.206Z,48.59
2023-05-19T17:54:56.246Z,49.87
2023-05-19T17:58:59.718Z,51.31
2023-05-19T18:03:04.970Z,51.23
2023-05-19T18:07:10.308Z,53.95
2023-05-19T18:11:16.243Z,52.43
2023-05-19T18:15:19.364Z,53.78
2023-05-19T18:19:22.484Z,53.87
2023-05-19T18:23:25.881Z,55.60
2023-05-19T18:27:31.591Z,58.07
2023-05-19T18:31:34.913Z,59.48
2023-05-19T18:35:38.202Z,59.51
2023-05-19T18:39:41.362Z,60.43
2023-05-19T18:43:45.866Z,62.57
2023-05-19T18:47:49.341Z,67.44
2023-05-19T18:51:54.663Z,70.86
2023-05-19T18:55:57.916Z,74.48
2023-05-19T19:00:02.563Z,78.38
2023-05-19T19:04:06.203Z,84.16
2023-05-19T19:08:09.905Z,91.20
2023-05-19T19:12:13.401Z,94.77
2023-05-19T19:16:18.332Z,100.00
2023-05-19T19:20:21.490Z,100.00
2023-05-19T19:24:24.672Z,100.00
2023-05-19T19:28:27.952Z,100.00
2023-05-19T19:32:32.744Z,100.00
2023-05-19T19:36:36.201Z,100.00
2023-05-19T19:40:39.397Z,100.00
2023-05-19T19:44:42.545Z,100.00
2023-05-19T19:48:47.387Z,100.00
2023-05-19T19:52:50.596Z,100.00
2023-05-19T19:56:54.647Z,100.00
2023-05-19T20:00:58.921Z,100.00
2023-05-19T20:05:03.819Z,100.00
2023-05-19T20:09:07.209Z,100.00
2023-05-19T20:13:10.888Z,100.00
2023-05-19T20:17:14.222Z,100.00
2023-05-19T20:21:20.151Z,100.00
2023-05-19T20:25:23.647Z,100.00
2023-05-19T20:29:27.723Z,100.00
2023-05-19T20:33:31.878Z,100.00
2023-05-19T20:37:36.484Z,100.00
2023-05-19T20:41:39.956Z,100.00
2023-05-19T20:45:43.944Z,100.00
2023-05-19T20:49:48.407Z,100.00
2023-05-19T20:53:53.001Z,100.00
2023-05-19T20:57:56.096Z,100.00
2023-05-19T21:01:59.444Z,100.00
2023-05-19T21:06:02.604Z,100.00
2023-05-19T21:10:08.149Z,100.00
2023-05-19T21:14:11.590Z,100.00
2023-05-19T21:18:15.078Z,100.00
2023-05-19T21:22:18.514Z,100.00
2023-05-19T21:26:23.240Z,100.00
2023-05-19T21:30:26.929Z,100.00
2023-05-19T21:34:30.270Z,100.00
2023-05-19T21:38:33.428Z,100.00
2023-05-19T21:42:37.774Z,100.00
2023-05-19T21:46:40.896Z,100.00
2023-05-19T21:50:44.400Z,100.00
2023-05-19T21:54:48.070Z,100.00
2023-05-19T21:58:53.300Z,100.00
2023-05-19T22:02:56.547Z,100.00
2023-05-19T22:06:59.901Z,100.00
2023-05-19T22:11:03.419Z,100.00
2023-05-19T22:15:09.282Z,100.00
2023-05-19T22:19:12.975Z,100.00
2023-05-19T22:23:16.398Z,100.00
2023-05-19T22:27:19.555Z,100.00
2023-05-19T22:31:24.511Z,100.00
2023-05-19T22:35:27.814Z,100.00
2023-05-19T22:39:34.381Z,100.00
2023-05-19T22:43:38.565Z,100.00
2023-05-19T22:47:43.699Z,100.00
2023-05-19T22:51:46.766Z,100.00
2023-05-19T22:55:50.048Z,100.00
2023-05-19T22:59:53.222Z,100.00
2023-05-19T23:03:58.043Z,100.00
2023-05-19T23:08:01.156Z,100.00
2023-05-19T23:12:04.259Z,100.00
2023-05-19T23:16:07.912Z,100.00
2023-05-19T23:20:13.755Z,100.00
2023-05-19T23:24:17.325Z,100.00
2023-05-19T23:28:20.532Z,100.00
2023-05-19T23:32:23.810Z,100.00
2023-05-19T23:36:28.670Z,100.00
2023-05-19T23:40:31.924Z,100.00
2023-05-19T23:44:35.340Z,100.00
2023-05-19T23:48:38.410Z,100.00
2023-05-19T23:52:42.901Z,100.00
2023-05-19T23:56:46.305Z,100.00
